Time;durP1;ratioP1;P1;durP2;ratioP2;P2;SDS_P1;SDS_P2;PMS_P1;PMS_P2;Temp;Humidity;BMP_temperature;BMP_pressure;BME280_temperature;BME280_humidity;BME280_pressure;Samples;Min_cycle;Max_cycle;Signal;HPM_P1;HPM_P2
2022/01/23 00:02:26;;;;;;;5.45;3.38;;;9.70;99.90;;;;;;5101378;28;20047;-71
2022/01/23 00:04:52;;;;;;;7.65;3.15;;;9.30;99.90;;;;;;5122286;27;20205;-73
2022/01/23 00:07:18;;;;;;;6.22;3.70;;;10.30;99.90;;;;;;5080666;28;20130;-72
2022/01/23 00:09:43;;;;;;;9.43;3.90;;;9.60;99.90;;;;;;5104467;28;20097;-74
2022/01/23 00:12:20;;;;;;;8.10;3.35;;;8.70;99.90;;;;;;5089111;28;20953;-72
2022/01/23 00:17:34;;;;;;;6.80;3.60;;;8.70;99.90;;;;;;5109043;28;20043;-76
2022/01/23 00:20:03;;;;;;;5.97;3.20;;;8.70;99.90;;;;;;5091923;28;20123;-74
2022/01/23 00:22:55;;;;;;;9.10;3.30;;;9.60;99.90;;;;;;5110733;28;20058;-75
2022/01/23 00:30:48;;;;;;;4.60;2.30;;;9.60;99.90;;;;;;5130021;27;20116;-75
2022/01/23 00:33:15;;;;;;;7.07;2.83;;;8.40;99.90;;;;;;5110397;27;20122;-72
2022/01/23 00:35:43;;;;;;;6.30;2.92;;;8.50;99.90;;;;;;5113198;27;20038;-76
2022/01/23 00:38:11;;;;;;;5.07;2.85;;;8.60;99.90;;;;;;5130919;27;20080;-75
2022/01/23 00:40:39;;;;;;;5.50;2.67;;;8.40;99.90;;;;;;5129256;27;20034;-75
2022/01/23 00:43:14;;;;;;;7.25;2.72;;;9.30;99.90;;;;;;5130274;27;20111;-74
2022/01/23 00:45:50;;;;;;;4.97;3.03;;;8.40;99.90;;;;;;5146654;27;20508;-75
2022/01/23 00:48:17;;;;;;;5.20;2.78;;;8.90;99.90;;;;;;5113285;27;20035;-76
2022/01/23 00:50:45;;;;;;;8.18;2.88;;;9.50;99.90;;;;;;5113266;27;20035;-75
2022/01/23 00:53:13;;;;;;;7.03;3.13;;;9.90;99.90;;;;;;5126226;27;20039;-72
2022/01/23 00:55:41;;;;;;;6.55;3.03;;;9.70;99.90;;;;;;5129257;27;20084;-76
2022/01/23 00:58:07;;;;;;;7.47;3.45;;;8.30;99.90;;;;;;5127744;27;20514;-75
2022/01/23 01:00:33;;;;;;;7.57;3.75;;;9.70;99.90;;;;;;5115096;27;20062;-73
2022/01/23 01:02:59;;;;;;;4.47;2.95;;;9.40;99.90;;;;;;5112876;27;20062;-73
2022/01/23 01:05:28;;;;;;;6.28;3.03;;;8.30;99.90;;;;;;5095483;27;20121;-74
2022/01/23 01:07:58;;;;;;;7.53;3.53;;;9.80;99.90;;;;;;5130535;27;20118;-75
2022/01/23 01:10:36;;;;;;;6.85;3.28;;;8.20;99.90;;;;;;5112856;27;20117;-73
2022/01/23 01:13:04;;;;;;;6.30;2.83;;;9.10;99.90;;;;;;5127338;27;20070;-76
2022/01/23 01:15:39;;;;;;;3.67;2.60;;;8.50;99.90;;;;;;5129130;27;20039;-76
2022/01/23 01:32:09;;;;;;;9.70;5.63;;;8.20;99.90;;;;;;5125290;27;20074;-74
2022/01/23 01:34:41;;;;;;;8.35;4.90;;;9.20;99.90;;;;;;5110055;27;20074;-73
2022/01/23 01:37:09;;;;;;;7.32;4.53;;;9.00;99.90;;;;;;5109314;28;20060;-77
2022/01/23 01:39:35;;;;;;;6.75;4.07;;;8.20;99.90;;;;;;5124466;27;20100;-75
2022/01/23 01:42:00;;;;;;;7.40;4.22;;;8.10;99.90;;;;;;5112635;27;20494;-74
2022/01/23 01:44:27;;;;;;;5.55;3.97;;;9.10;99.90;;;;;;5110966;27;20066;-74
2022/01/23 01:46:53;;;;;;;8.55;3.60;;;9.50;99.90;;;;;;5112692;27;20075;-74
2022/01/23 01:49:26;;;;;;;9.50;3.55;;;9.40;99.90;;;;;;5113496;27;20043;-75
2022/01/23 01:51:53;;;;;;;9.88;3.97;;;8.80;99.90;;;;;;5109542;28;20048;-74
2022/01/23 01:54:21;;;;;;;4.70;3.47;;;8.50;99.90;;;;;;5121928;27;20082;-72
2022/01/23 01:56:52;;;;;;;5.43;2.97;;;8.80;99.90;;;;;;5112667;27;20108;-73
2022/01/23 02:10:33;;;;;;;5.43;3.50;;;9.50;99.90;;;;;;5089591;27;20461;-75
2022/01/23 02:13:09;;;;;;;8.13;3.67;;;8.30;99.90;;;;;;5128845;27;20467;-75
2022/01/23 02:16:02;;;;;;;7.55;3.83;;;9.40;99.90;;;;;;5126264;27;20130;-74
2022/01/23 02:51:14;;;;;;;6.85;4.63;;;7.90;99.90;;;;;;5112866;28;20071;-74
2022/01/23 02:54:07;;;;;;;9.80;4.38;;;8.20;99.90;;;;;;5128996;28;20039;-74
2022/01/23 02:56:35;;;;;;;9.25;4.63;;;8.30;99.90;;;;;;5126850;28;20104;-74
2022/01/23 02:59:12;;;;;;;8.70;4.28;;;8.60;99.90;;;;;;5107884;28;20136;-75
2022/01/23 03:01:48;;;;;;;10.40;4.90;;;8.30;99.90;;;;;;5128935;28;20412;-74
2022/01/23 03:04:14;;;;;;;9.80;4.63;;;8.60;99.90;;;;;;5127275;28;20133;-73
2022/01/23 03:06:56;;;;;;;7.22;4.03;;;9.20;99.90;;;;;;5111328;28;20130;-73
2022/01/23 03:14:47;;;;;;;14.18;5.20;;;8.50;99.90;;;;;;5098795;28;20391;-73
2022/01/23 03:30:51;;;;;;;6.50;3.47;;;9.20;99.90;;;;;;5131758;27;20403;-74
2022/01/23 03:33:17;;;;;;;8.55;3.58;;;8.90;99.90;;;;;;5114408;27;20039;-72
2022/01/23 03:35:43;;;;;;;8.32;3.70;;;8.00;99.90;;;;;;5131095;27;20049;-74
2022/01/23 03:38:09;;;;;;;7.38;3.78;;;7.90;99.90;;;;;;5130264;27;20035;-74
2022/01/23 03:40:35;;;;;;;12.55;3.60;;;8.00;99.90;;;;;;5114006;27;20043;-74
2022/01/23 03:43:09;;;;;;;6.50;3.80;;;9.40;99.90;;;;;;5113685;27;20042;-73
2022/01/23 03:50:48;;;;;;;6.10;4.07;;;8.10;99.90;;;;;;5087898;27;20348;-77
2022/01/23 03:53:14;;;;;;;6.57;3.78;;;9.30;99.90;;;;;;5129432;27;20050;-76
2022/01/23 03:55:40;;;;;;;8.60;3.95;;;8.10;99.90;;;;;;5131963;27;20487;-77
2022/01/23 03:58:06;;;;;;;6.35;3.40;;;8.70;99.90;;;;;;5121834;27;20623;-76
2022/01/23 04:00:32;;;;;;;8.23;4.03;;;9.10;99.90;;;;;;5125268;27;20088;-74
2022/01/23 04:02:58;;;;;;;8.45;4.60;;;8.50;99.90;;;;;;5109695;27;20039;-74
2022/01/23 04:05:25;;;;;;;8.90;3.78;;;8.10;99.90;;;;;;5111476;28;20043;-73
2022/01/23 04:07:50;;;;;;;7.10;3.83;;;9.00;99.90;;;;;;5111646;27;20071;-74
2022/01/23 04:10:19;;;;;;;8.30;3.63;;;8.00;99.90;;;;;;5129586;27;20031;-74
2022/01/23 04:34:29;;;;;;;9.05;3.70;;;9.20;99.90;;;;;;5076779;28;20067;-74
2022/01/23 04:45:19;;;;;;;6.85;3.40;;;9.50;99.90;;;;;;5098109;27;20079;-75
2022/01/23 05:01:47;;;;;;;6.88;3.55;;;8.20;99.90;;;;;;5093221;28;20123;-74
2022/01/23 05:04:19;;;;;;;5.50;3.55;;;9.50;99.90;;;;;;5094823;28;20457;-75
2022/01/23 05:06:59;;;;;;;9.70;3.95;;;8.80;99.90;;;;;;5076708;28;20050;-73
2022/01/23 05:09:26;;;;;;;7.97;3.50;;;8.30;99.90;;;;;;5107248;28;20097;-77
2022/01/23 05:11:56;;;;;;;9.60;4.20;;;8.00;99.90;;;;;;5064796;28;20066;-74
2022/01/23 05:14:43;;;;;;;10.55;4.18;;;8.20;99.90;;;;;;5108949;28;20047;-76
2022/01/23 05:17:13;;;;;;;8.70;3.95;;;9.10;99.90;;;;;;5108545;28;20040;-75
2022/01/23 05:19:39;;;;;;;6.03;3.67;;;8.00;99.90;;;;;;5090789;28;20040;-74
2022/01/23 05:22:19;;;;;;;7.07;3.70;;;8.00;99.90;;;;;;5073282;28;20157;-73
2022/01/23 05:24:52;;;;;;;8.48;3.97;;;8.10;99.90;;;;;;5106159;28;20039;-75
2022/01/23 05:27:18;;;;;;;5.53;3.35;;;8.00;99.90;;;;;;5109847;28;20079;-74
2022/01/23 05:29:44;;;;;;;5.82;3.70;;;8.60;99.90;;;;;;5109801;28;20046;-74
2022/01/23 05:32:12;;;;;;;5.35;3.60;;;8.00;99.90;;;;;;5129224;27;20055;-73
2022/01/23 05:34:39;;;;;;;7.05;3.70;;;9.30;99.90;;;;;;5108903;28;20043;-73
2022/01/23 05:37:05;;;;;;;6.80;3.83;;;9.60;99.90;;;;;;5101320;27;20095;-74
2022/01/23 05:39:33;;;;;;;8.52;4.07;;;9.20;99.90;;;;;;5124103;27;20027;-75
2022/01/23 05:42:06;;;;;;;6.88;3.83;;;9.50;99.90;;;;;;5121913;27;20039;-76
2022/01/23 05:44:33;;;;;;;4.90;3.50;;;8.80;99.90;;;;;;5111736;27;20383;-75
2022/01/23 05:46:59;;;;;;;5.05;3.72;;;8.30;99.90;;;;;;5130459;27;20339;-74
2022/01/23 05:49:25;;;;;;;8.13;4.20;;;8.60;99.90;;;;;;5095409;27;20121;-75
2022/01/23 05:51:50;;;;;;;7.70;4.28;;;9.40;99.90;;;;;;5112426;27;20047;-75
2022/01/23 05:54:16;;;;;;;7.13;3.83;;;8.10;99.90;;;;;;5123258;27;20043;-74
2022/01/23 05:56:42;;;;;;;8.63;3.70;;;9.40;99.90;;;;;;5101782;28;20031;-74
2022/01/23 05:59:08;;;;;;;7.15;3.97;;;9.60;99.90;;;;;;5092712;28;20461;-77
2022/01/23 06:01:33;;;;;;;6.05;3.90;;;8.70;99.90;;;;;;5096445;28;20147;-74
2022/01/23 06:03:59;;;;;;;6.07;3.88;;;8.30;99.90;;;;;;5122417;27;20039;-74
2022/01/23 06:06:25;;;;;;;5.63;4.00;;;9.70;99.90;;;;;;5106660;28;20058;-75
2022/01/23 06:08:51;;;;;;;7.78;3.60;;;9.10;99.90;;;;;;5113204;27;20038;-74
2022/01/23 06:11:16;;;;;;;6.65;3.83;;;9.70;99.90;;;;;;5108840;28;20039;-74
2022/01/23 06:13:42;;;;;;;6.88;3.83;;;8.40;99.90;;;;;;5129195;27;20035;-74
2022/01/23 06:16:08;;;;;;;5.53;3.70;;;9.10;99.90;;;;;;5125138;27;20070;-76
2022/01/23 06:18:36;;;;;;;6.80;3.47;;;8.30;99.90;;;;;;5121376;27;20027;-74
2022/01/23 06:21:02;;;;;;;6.28;3.40;;;9.40;99.90;;;;;;5126865;27;20099;-74
2022/01/23 06:23:29;;;;;;;6.80;3.50;;;8.70;99.90;;;;;;5112641;27;20047;-75
2022/01/23 06:25:56;;;;;;;9.05;3.67;;;9.80;99.90;;;;;;5111104;27;20117;-75
2022/01/23 06:28:42;;;;;;;4.63;3.00;;;9.80;99.90;;;;;;5117802;27;20297;-74
2022/01/23 06:31:08;;;;;;;4.60;3.17;;;8.60;99.90;;;;;;5091908;28;20050;-74
2022/01/23 06:33:36;;;;;;;5.97;3.17;;;9.90;99.90;;;;;;5090316;28;20645;-75
2022/01/23 06:36:02;;;;;;;6.43;3.53;;;8.50;99.90;;;;;;5090901;28;20032;-73
2022/01/23 06:38:29;;;;;;;6.43;3.78;;;8.80;99.90;;;;;;5107542;28;20361;-74
2022/01/23 06:40:54;;;;;;;7.20;3.60;;;9.90;99.90;;;;;;5108848;28;20035;-73
2022/01/23 06:43:20;;;;;;;6.57;4.20;;;9.40;99.90;;;;;;5085250;28;20081;-74
2022/01/23 06:45:46;;;;;;;6.72;4.38;;;9.40;99.90;;;;;;5105727;28;20040;-76
2022/01/23 06:48:11;;;;;;;9.45;4.93;;;9.50;99.90;;;;;;5109324;28;20038;-76
2022/01/23 06:50:37;;;;;;;6.13;4.13;;;9.00;99.90;;;;;;5108140;28;20057;-74
2022/01/23 06:53:03;;;;;;;6.13;4.45;;;8.20;99.90;;;;;;5074705;28;20042;-78
2022/01/23 06:55:29;;;;;;;7.35;4.43;;;8.90;99.90;;;;;;5088077;28;20108;-74
2022/01/23 06:57:54;;;;;;;8.35;4.45;;;8.50;99.90;;;;;;5106199;28;20122;-74
2022/01/23 07:00:20;;;;;;;7.80;4.28;;;8.30;99.90;;;;;;5090376;28;20123;-74
2022/01/23 07:02:45;;;;;;;7.55;4.55;;;9.50;99.90;;;;;;5091540;28;20097;-74
2022/01/23 07:05:11;;;;;;;9.00;4.28;;;8.50;99.90;;;;;;5072696;28;20032;-74
2022/01/23 07:07:37;;;;;;;6.53;4.13;;;9.80;99.90;;;;;;5093491;28;20043;-75
2022/01/23 07:10:03;;;;;;;7.07;4.25;;;9.30;99.90;;;;;;5088667;28;20071;-72
2022/01/23 07:12:29;;;;;;;8.43;5.35;;;9.80;99.90;;;;;;5092564;28;20499;-75
2022/01/23 07:14:55;;;;;;;11.00;5.22;;;9.70;99.90;;;;;;5100548;28;20040;-76
2022/01/23 07:17:21;;;;;;;5.97;4.30;;;9.90;99.90;;;;;;5076908;28;20067;-79
2022/01/23 07:19:47;;;;;;;9.70;5.93;;;8.30;99.90;;;;;;5110430;28;20131;-77
2022/01/23 07:22:13;;;;;;;7.57;4.93;;;9.30;99.90;;;;;;5079160;28;20102;-73
2022/01/23 07:24:39;;;;;;;8.10;5.03;;;8.40;99.90;;;;;;5112383;28;20079;-78
2022/01/23 07:27:23;;;;;;;7.32;4.97;;;8.40;99.90;;;;;;5089927;28;20046;-76
2022/01/23 07:29:49;;;;;;;9.80;5.72;;;9.70;99.90;;;;;;5088511;27;20142;-76
2022/01/23 07:32:14;;;;;;;8.30;4.60;;;9.50;99.90;;;;;;5082004;27;20649;-77
2022/01/23 07:34:40;;;;;;;7.95;4.65;;;9.40;99.90;;;;;;5113824;27;20092;-76
2022/01/23 07:37:06;;;;;;;6.13;4.22;;;8.20;99.90;;;;;;5131272;27;20113;-74
2022/01/23 07:39:32;;;;;;;9.02;4.60;;;9.60;99.90;;;;;;5119570;27;20042;-74
2022/01/23 07:41:57;;;;;;;7.85;4.43;;;9.60;99.90;;;;;;5130325;27;20042;-75
2022/01/23 07:44:23;;;;;;;6.88;4.28;;;10.00;99.90;;;;;;5118201;27;20034;-73
2022/01/23 07:46:49;;;;;;;10.07;5.07;;;10.00;99.90;;;;;;5134662;27;20432;-73
2022/01/23 07:49:15;;;;;;;8.77;4.68;;;8.20;99.90;;;;;;5135958;27;20051;-73
2022/01/23 07:51:41;;;;;;;6.60;4.88;;;9.90;99.90;;;;;;5130958;27;20038;-74
2022/01/23 07:54:06;;;;;;;8.43;3.88;;;8.70;99.90;;;;;;5106211;27;20026;-73
2022/01/23 07:56:32;;;;;;;7.35;4.15;;;9.90;99.90;;;;;;5115139;27;20495;-74
2022/01/23 07:58:58;;;;;;;7.32;4.95;;;8.40;99.90;;;;;;5117869;27;20035;-74
2022/01/23 08:01:24;;;;;;;7.10;4.10;;;8.80;99.90;;;;;;5118323;27;20687;-75
2022/01/23 08:03:50;;;;;;;5.85;4.35;;;9.50;99.90;;;;;;5117671;27;20042;-75
2022/01/23 08:06:16;;;;;;;6.28;4.38;;;8.50;99.90;;;;;;5101671;27;20043;-76
2022/01/23 08:08:42;;;;;;;5.88;3.95;;;8.70;99.90;;;;;;5116966;27;20091;-76
2022/01/23 08:11:08;;;;;;;5.30;3.47;;;9.90;99.90;;;;;;5135736;27;20680;-77
2022/01/23 08:13:34;;;;;;;6.30;4.07;;;9.60;99.90;;;;;;5133385;27;20043;-78
2022/01/23 08:16:00;;;;;;;6.40;4.20;;;8.60;99.90;;;;;;5136074;27;20038;-75
2022/01/23 08:18:26;;;;;;;7.53;5.22;;;8.90;99.90;;;;;;5134242;27;20104;-75
2022/01/23 08:20:52;;;;;;;6.70;4.32;;;9.60;99.90;;;;;;5135776;27;20070;-73
2022/01/23 08:23:18;;;;;;;7.97;4.70;;;9.70;99.90;;;;;;5117439;27;20071;-75
2022/01/23 08:25:44;;;;;;;11.32;6.18;;;9.10;99.90;;;;;;5133798;27;20066;-76
2022/01/23 08:28:10;;;;;;;7.75;5.10;;;9.30;99.90;;;;;;5097610;27;20458;-74
2022/01/23 08:30:36;;;;;;;7.43;4.85;;;8.60;99.90;;;;;;5108359;28;20388;-72
2022/01/23 08:33:10;;;;;;;5.85;4.50;;;8.80;99.90;;;;;;5115623;27;20043;-76
2022/01/23 08:35:36;;;;;;;5.47;4.25;;;8.40;99.90;;;;;;5076682;28;20074;-75
2022/01/23 08:38:06;;;;;;;6.38;3.90;;;9.80;99.90;;;;;;5095638;27;20103;-76
2022/01/23 08:43:07;;;;;;;;;;;9.10;99.90;;;;;;5081150;27;20054;-76
2022/01/23 08:45:52;;;;;;;6.43;3.67;;;9.60;99.90;;;;;;5112524;27;19915;-79
2022/01/23 08:48:19;;;;;;;5.93;3.97;;;8.50;99.90;;;;;;5112626;27;20051;-77
2022/01/23 08:50:47;;;;;;;6.55;3.67;;;10.10;99.90;;;;;;5103558;28;20038;-75
2022/01/23 08:53:19;;;;;;;5.93;3.42;;;9.10;99.90;;;;;;5061160;28;20391;-73
2022/01/23 08:55:51;;;;;;;4.78;3.67;;;8.90;99.90;;;;;;5109464;27;20035;-76
2022/01/23 08:58:16;;;;;;;8.68;3.75;;;9.30;99.90;;;;;;5114285;27;20031;-74
2022/01/23 09:00:42;;;;;;;6.65;3.38;;;9.60;99.90;;;;;;5130494;27;20046;-75
2022/01/23 09:03:08;;;;;;;4.47;3.13;;;8.80;99.90;;;;;;5131389;27;20109;-74
2022/01/23 09:05:34;;;;;;;4.93;3.08;;;8.70;99.90;;;;;;5112902;27;20066;-75
2022/01/23 09:08:00;;;;;;;6.90;3.60;;;10.30;99.90;;;;;;5129175;27;20051;-78
2022/01/23 09:10:28;;;;;;;4.57;3.40;;;10.00;99.90;;;;;;5127040;27;20053;-75
2022/01/23 09:13:07;;;;;;;5.60;3.70;;;9.20;99.90;;;;;;5112740;27;20068;-75
2022/01/23 09:15:33;;;;;;;4.85;3.17;;;9.70;99.90;;;;;;5114153;27;20559;-74
2022/01/23 09:17:59;;;;;;;4.05;2.95;;;9.30;99.90;;;;;;5131101;27;20031;-74
2022/01/23 09:20:25;;;;;;;4.82;3.22;;;9.60;99.90;;;;;;5116815;27;20047;-71
2022/01/23 09:22:51;;;;;;;5.00;3.08;;;8.50;99.90;;;;;;5086646;27;20035;-73
2022/01/23 09:25:16;;;;;;;4.28;3.10;;;9.20;99.90;;;;;;5111605;28;20448;-72
2022/01/23 09:27:42;;;;;;;3.88;2.63;;;8.50;99.90;;;;;;5113449;27;20130;-74
2022/01/23 09:30:17;;;;;;;4.70;2.58;;;9.60;99.90;;;;;;5070276;27;20138;-75
2022/01/23 09:32:44;;;;;;;4.20;3.30;;;9.20;99.90;;;;;;5102623;27;20163;-73
2022/01/23 09:35:11;;;;;;;5.97;3.75;;;9.90;99.90;;;;;;5126719;27;20680;-75
2022/01/23 09:37:37;;;;;;;5.57;3.53;;;9.70;99.90;;;;;;5109209;27;20066;-73
2022/01/23 09:40:05;;;;;;;2.83;2.15;;;8.60;99.90;;;;;;5108818;27;20070;-74
2022/01/23 09:42:41;;;;;;;3.42;1.80;;;9.40;99.90;;;;;;5108075;27;20066;-73
2022/01/23 09:45:11;;;;;;;2.78;2.10;;;9.70;99.90;;;;;;5125444;27;20063;-74
2022/01/23 09:47:38;;;;;;;4.47;1.73;;;9.70;99.90;;;;;;5126214;27;20426;-75
2022/01/23 09:50:06;;;;;;;4.32;1.80;;;9.80;99.90;;;;;;5123604;27;20985;-75
2022/01/23 09:52:35;;;;;;;3.83;2.03;;;10.20;99.90;;;;;;5093235;27;20061;-73
2022/01/23 09:55:10;;;;;;;3.17;2.33;;;9.20;99.90;;;;;;5124525;27;20070;-74
2022/01/23 09:57:43;;;;;;;4.25;2.05;;;10.20;99.90;;;;;;5125584;27;20114;-74
2022/01/23 10:00:13;;;;;;;3.97;2.10;;;10.00;99.90;;;;;;5101377;27;20039;-73
2022/01/23 10:02:40;;;;;;;3.67;1.60;;;9.20;99.90;;;;;;5098590;27;20035;-71
2022/01/23 10:05:06;;;;;;;3.53;1.70;;;9.40;99.90;;;;;;5100999;27;20479;-75
2022/01/23 10:07:37;;;;;;;1.95;1.10;;;9.70;99.90;;;;;;5099591;27;20034;-73
2022/01/23 10:10:11;;;;;;;2.33;1.30;;;9.10;99.90;;;;;;5117848;27;20060;-73
2022/01/23 10:12:51;;;;;;;3.73;2.70;;;9.10;99.90;;;;;;5102837;27;20039;-75
2022/01/23 10:15:19;;;;;;;4.63;4.10;;;9.50;99.90;;;;;;5093532;27;20150;-74
2022/01/23 10:17:46;;;;;;;3.65;3.20;;;8.70;99.90;;;;;;5102510;27;20045;-74
2022/01/23 10:20:13;;;;;;;2.95;2.55;;;9.30;99.90;;;;;;5101141;27;20034;-75
2022/01/23 10:22:42;;;;;;;3.42;2.38;;;8.60;99.90;;;;;;5100331;27;20046;-76
2022/01/23 10:25:31;;;;;;;3.42;2.20;;;9.20;99.90;;;;;;5105303;27;20156;-73
2022/01/23 10:28:10;;;;;;;3.00;1.90;;;8.60;99.90;;;;;;5103947;27;20046;-72
2022/01/23 10:30:52;;;;;;;2.80;1.80;;;8.70;99.90;;;;;;5124931;27;20077;-73
2022/01/23 10:33:33;;;;;;;3.38;2.10;;;8.60;99.90;;;;;;5125743;27;20095;-72
2022/01/23 10:36:08;;;;;;;3.63;1.70;;;8.70;99.90;;;;;;5126027;27;20046;-73
2022/01/23 10:38:40;;;;;;;3.15;1.60;;;8.60;99.90;;;;;;5125324;27;20601;-72
2022/01/23 10:49:55;;;;;;;2.80;1.58;;;8.70;99.90;;;;;;5125992;27;20061;-71
2022/01/23 10:52:32;;;;;;;1.67;1.20;;;8.70;99.90;;;;;;5125490;27;20394;-77
2022/01/23 10:54:59;;;;;;;3.42;2.80;;;8.50;99.90;;;;;;5108363;27;20734;-77
2022/01/23 10:57:43;;;;;;;2.55;1.70;;;8.60;99.90;;;;;;5108052;27;20072;-72
2022/01/23 11:00:20;;;;;;;2.40;1.23;;;8.80;99.90;;;;;;5124499;27;20106;-72
2022/01/23 11:02:47;;;;;;;1.50;1.20;;;8.60;99.90;;;;;;5108595;27;20077;-75
2022/01/23 11:05:15;;;;;;;2.00;1.10;;;8.30;99.90;;;;;;5091299;27;20058;-74
2022/01/23 11:07:44;;;;;;;1.65;1.00;;;8.30;99.90;;;;;;5091556;27;20042;-77
2022/01/23 11:10:22;;;;;;;1.77;1.15;;;8.70;99.90;;;;;;5092753;27;20050;-76
2022/01/23 11:18:07;;;;;;;1.63;1.20;;;8.50;99.90;;;;;;5124101;27;20565;-76
2022/01/23 11:20:44;;;;;;;1.67;1.33;;;8.10;99.90;;;;;;5087929;28;20043;-76
2022/01/23 11:23:30;;;;;;;1.67;1.30;;;8.00;99.90;;;;;;5109279;28;20111;-74
2022/01/23 11:25:59;;;;;;;2.05;1.20;;;8.40;99.90;;;;;;5093965;27;20046;-74
2022/01/23 11:28:40;;;;;;;2.20;1.50;;;8.00;99.90;;;;;;5108124;27;20486;-74
2022/01/23 11:31:09;;;;;;;1.40;0.95;;;8.00;99.90;;;;;;5121656;28;20203;-75
2022/01/23 11:33:35;;;;;;;1.90;0.80;;;8.30;99.90;;;;;;5121352;28;20139;-73
2022/01/23 11:36:02;;;;;;;3.60;0.93;;;8.30;99.90;;;;;;5104174;28;20126;-73
2022/01/23 11:38:28;;;;;;;1.30;0.95;;;8.10;99.90;;;;;;5104395;28;20126;-74
2022/01/23 11:54:45;;;;;;;2.25;0.95;;;8.20;99.90;;;;;;5118433;27;20645;-76
2022/01/23 11:57:33;;;;;;;1.30;0.70;;;8.30;99.90;;;;;;5126003;27;20062;-74
2022/01/23 12:00:03;;;;;;;1.92;0.75;;;8.40;99.90;;;;;;5125806;27;20039;-74
2022/01/23 12:02:37;;;;;;;1.75;0.57;;;8.40;99.90;;;;;;5108498;27;20047;-72
2022/01/23 12:05:14;;;;;;;2.17;0.90;;;8.40;99.90;;;;;;5124025;27;20039;-76
2022/01/23 12:07:41;;;;;;;1.30;0.70;;;8.10;99.90;;;;;;5107367;27;20384;-74
2022/01/23 12:10:19;;;;;;;1.48;0.73;;;8.20;99.90;;;;;;5107902;27;20078;-73
2022/01/23 12:12:48;;;;;;;0.95;0.63;;;8.20;99.90;;;;;;5103386;27;20243;-72
2022/01/23 12:18:29;;;;;;;1.05;0.65;;;8.30;99.90;;;;;;5104764;28;20776;-72
2022/01/23 12:20:55;;;;;;;0.80;0.73;;;8.40;99.90;;;;;;5115799;27;20142;-75
2022/01/23 12:23:22;;;;;;;1.25;0.90;;;8.00;99.90;;;;;;5089636;27;20070;-73
2022/01/23 12:25:53;;;;;;;2.33;1.20;;;8.10;99.90;;;;;;5105960;27;20810;-75
2022/01/23 12:28:25;;;;;;;1.35;0.90;;;8.10;99.90;;;;;;5100516;27;20035;-75
2022/01/23 12:31:24;;;;;;;2.38;0.90;;;8.30;99.90;;;;;;5103843;28;20048;-75
2022/01/23 12:33:58;;;;;;;3.38;1.30;;;8.10;99.90;;;;;;5096123;27;20043;-75
2022/01/23 12:36:27;;;;;;;3.45;2.17;;;8.30;99.90;;;;;;5081564;28;20076;-75
2022/01/23 12:39:06;;;;;;;2.42;1.77;;;8.40;99.90;;;;;;5120811;27;20039;-75
2022/01/23 12:41:40;;;;;;;1.92;1.67;;;8.40;99.90;;;;;;5124673;27;20038;-72
2022/01/23 12:44:29;;;;;;;2.10;1.60;;;8.60;99.90;;;;;;5069958;28;20495;-73
2022/01/23 12:47:02;;;;;;;1.60;1.23;;;8.10;99.90;;;;;;5120950;27;20652;-77
2022/01/23 12:49:47;;;;;;;1.55;1.30;;;8.40;99.90;;;;;;5085597;28;20047;-74
2022/01/23 12:52:20;;;;;;;2.13;1.30;;;8.10;99.90;;;;;;5103743;28;20659;-73
2022/01/23 12:54:46;;;;;;;1.87;1.10;;;8.00;99.90;;;;;;5108831;27;20100;-73
2022/01/23 12:57:30;;;;;;;2.78;1.33;;;8.10;99.90;;;;;;5107454;27;20047;-75
2022/01/23 13:00:00;;;;;;;3.72;1.58;;;8.40;99.90;;;;;;5122415;27;20863;-73
2022/01/23 13:02:33;;;;;;;1.88;1.33;;;8.30;99.90;;;;;;5106723;27;20039;-72
2022/01/23 13:04:59;;;;;;;1.40;1.13;;;8.30;99.90;;;;;;5123777;27;20043;-75
2022/01/23 13:12:50;;;;;;;2.35;1.40;;;8.50;99.90;;;;;;5123999;27;20574;-75
2022/01/23 13:29:56;;;;;;;2.17;1.40;;;8.20;99.90;;;;;;5107672;27;20046;-74
2022/01/23 13:32:43;;;;;;;3.42;1.55;;;8.40;99.90;;;;;;5111348;27;20084;-73
2022/01/23 13:35:13;;;;;;;2.65;1.58;;;8.40;99.90;;;;;;5123321;27;20518;-73
2022/01/23 13:37:46;;;;;;;2.22;1.75;;;8.40;99.90;;;;;;5105792;27;20039;-77
2022/01/23 13:40:16;;;;;;;2.00;1.38;;;8.20;99.90;;;;;;5105669;27;20115;-74
2022/01/23 13:53:30;;;;;;;2.75;1.60;;;8.40;99.90;;;;;;5123559;27;20058;-74
2022/01/23 13:59:07;;;;;;;4.95;1.90;;;8.40;99.90;;;;;;5063856;28;20055;-72
2022/01/23 14:01:45;;;;;;;2.08;1.58;;;8.10;99.90;;;;;;5063575;28;20044;-74
2022/01/23 14:04:15;;;;;;;2.50;1.80;;;8.20;99.90;;;;;;5064877;27;20194;-74
2022/01/23 14:06:41;;;;;;;4.10;2.20;;;8.50;99.90;;;;;;5122633;27;20050;-75
2022/01/23 14:09:10;;;;;;;4.45;1.88;;;8.30;99.90;;;;;;5106165;27;20066;-74
2022/01/23 14:11:36;;;;;;;2.65;2.00;;;8.50;99.90;;;;;;5104834;27;20092;-73
2022/01/23 14:14:18;;;;;;;3.22;1.88;;;8.20;99.90;;;;;;5122597;27;20051;-73
2022/01/23 14:16:46;;;;;;;2.47;1.80;;;8.50;99.90;;;;;;5105568;27;20082;-74
2022/01/23 14:19:13;;;;;;;2.38;2.13;;;8.20;99.90;;;;;;5105830;27;20437;-73
2022/01/23 14:21:41;;;;;;;4.78;2.10;;;8.50;99.90;;;;;;5121765;27;20134;-71
2022/01/23 14:24:07;;;;;;;2.80;2.20;;;8.40;99.90;;;;;;5104474;27;20573;-74
2022/01/23 14:26:33;;;;;;;2.53;2.03;;;8.60;99.90;;;;;;5106211;27;20083;-73
2022/01/23 14:29:05;;;;;;;2.78;2.05;;;8.50;99.90;;;;;;5121687;27;20043;-72
2022/01/23 14:31:37;;;;;;;4.32;2.28;;;8.60;99.90;;;;;;5108738;27;20104;-73
2022/01/23 14:34:16;;;;;;;3.10;2.08;;;8.30;99.90;;;;;;5090019;27;20146;-76
2022/01/23 14:36:42;;;;;;;5.03;2.30;;;8.70;99.90;;;;;;5122332;27;20042;-73
2022/01/23 14:39:13;;;;;;;3.25;2.25;;;8.40;99.90;;;;;;5068756;28;20043;-72
2022/01/23 14:41:42;;;;;;;3.30;2.35;;;8.70;99.90;;;;;;5110909;27;20893;-74
2022/01/23 14:44:16;;;;;;;4.05;2.53;;;8.50;99.90;;;;;;5105386;28;20119;-71
2022/01/23 14:46:44;;;;;;;4.43;3.95;;;8.30;99.90;;;;;;5090068;27;20043;-74
2022/01/23 14:49:12;;;;;;;8.07;7.10;;;8.50;99.90;;;;;;5104850;28;20047;-71
2022/01/23 14:51:39;;;;;;;5.93;4.00;;;8.90;99.90;;;;;;5104356;28;20705;-73
2022/01/23 14:54:05;;;;;;;5.25;2.55;;;8.30;99.90;;;;;;5105018;28;20406;-73
2022/01/23 14:56:33;;;;;;;3.88;2.75;;;8.50;99.90;;;;;;5079734;28;20562;-75
2022/01/23 14:58:58;;;;;;;4.70;3.42;;;8.90;99.90;;;;;;5099497;28;20043;-74
2022/01/23 15:01:24;;;;;;;6.20;4.80;;;8.70;99.90;;;;;;5105372;28;20039;-72
2022/01/23 15:03:52;;;;;;;5.32;3.53;;;8.80;99.90;;;;;;5101045;28;20117;-77
2022/01/23 15:06:22;;;;;;;7.57;5.50;;;8.40;99.90;;;;;;5085582;28;20495;-74
2022/01/23 15:08:48;;;;;;;6.15;4.75;;;8.60;99.90;;;;;;5093505;28;20367;-76
2022/01/23 15:11:14;;;;;;;6.35;4.65;;;8.20;99.90;;;;;;5118883;28;20115;-75
2022/01/23 15:13:40;;;;;;;6.28;3.35;;;8.40;99.90;;;;;;5121907;28;20035;-72
2022/01/23 15:16:06;;;;;;;5.28;3.47;;;8.70;99.90;;;;;;5085303;28;20683;-73
2022/01/23 15:18:33;;;;;;;4.10;2.67;;;8.20;99.90;;;;;;5117808;28;20387;-73
2022/01/23 15:20:59;;;;;;;4.97;3.28;;;8.30;99.90;;;;;;5117881;28;20082;-74
2022/01/23 15:23:25;;;;;;;4.60;3.58;;;8.30;99.90;;;;;;5122428;27;20078;-74
2022/01/23 15:25:51;;;;;;;7.95;4.38;;;8.50;99.90;;;;;;5108855;27;20049;-73
2022/01/23 15:28:16;;;;;;;8.68;4.97;;;8.40;99.90;;;;;;5078405;27;20131;-75
2022/01/23 15:30:44;;;;;;;7.25;4.05;;;8.40;99.90;;;;;;5083259;27;20051;-73
2022/01/23 15:33:10;;;;;;;7.78;4.57;;;8.40;99.90;;;;;;5124646;27;20054;-74
2022/01/23 15:35:43;;;;;;;17.67;11.85;;;8.30;99.90;;;;;;5094881;27;20474;-73
2022/01/23 15:38:09;;;;;;;14.10;9.63;;;8.20;99.90;;;;;;5108115;27;20039;-74
2022/01/23 15:40:35;;;;;;;9.32;6.13;;;7.80;99.90;;;;;;5120984;27;20046;-74
2022/01/23 15:43:00;;;;;;;10.15;7.70;;;7.70;99.90;;;;;;5077329;27;20118;-75
2022/01/23 15:45:26;;;;;;;8.57;5.00;;;8.00;99.90;;;;;;5102524;27;20051;-74
2022/01/23 15:47:52;;;;;;;18.30;8.80;;;7.70;99.90;;;;;;5091168;27;20035;-74
2022/01/23 15:50:19;;;;;;;11.95;5.88;;;7.90;99.90;;;;;;5092300;27;20138;-73
2022/01/23 15:52:46;;;;;;;8.95;7.35;;;7.90;99.90;;;;;;5111793;27;20042;-74
2022/01/23 15:55:13;;;;;;;6.53;5.00;;;7.50;99.90;;;;;;5112161;27;20103;-74
2022/01/23 15:57:40;;;;;;;3.67;2.70;;;7.70;99.90;;;;;;5093164;27;20043;-76
2022/01/23 16:00:09;;;;;;;3.58;2.70;;;7.70;99.90;;;;;;5112409;27;20027;-72
2022/01/23 16:02:35;;;;;;;2.75;2.28;;;7.90;99.90;;;;;;5130646;27;20699;-72
2022/01/23 16:05:02;;;;;;;2.75;2.28;;;7.60;99.90;;;;;;5111966;27;20046;-75
2022/01/23 16:07:28;;;;;;;4.88;2.35;;;7.60;99.90;;;;;;5112344;27;20049;-72
2022/01/23 16:09:54;;;;;;;3.72;2.30;;;7.60;99.90;;;;;;5122271;27;20039;-75
2022/01/23 16:12:20;;;;;;;6.70;2.70;;;7.50;99.90;;;;;;5128470;27;20475;-74
2022/01/23 16:14:46;;;;;;;4.78;3.05;;;7.50;99.90;;;;;;5128898;27;20050;-73
2022/01/23 16:17:12;;;;;;;9.45;5.60;;;7.50;99.90;;;;;;5128596;27;20071;-74
2022/01/23 16:19:38;;;;;;;10.88;7.10;;;7.70;99.90;;;;;;5128230;27;20035;-73
2022/01/23 16:22:05;;;;;;;10.82;7.68;;;7.80;99.90;;;;;;5110667;27;20190;-73
2022/01/23 16:24:31;;;;;;;12.55;7.70;;;7.80;99.90;;;;;;5111618;27;20046;-72
2022/01/23 16:26:57;;;;;;;12.85;7.70;;;7.80;99.90;;;;;;5128474;27;20050;-76
2022/01/23 16:29:25;;;;;;;13.77;9.23;;;7.70;99.90;;;;;;5077533;27;20897;-75